Time;durP1;ratioP1;P1;durP2;ratioP2;P2;SDS_P1;SDS_P2;PMS_P1;PMS_P2;Temp;Humidity;BMP_temperature;BMP_pressure;BME280_temperature;BME280_humidity;BME280_pressure;Samples;Min_cycle;Max_cycle;Signal;HPM_P1;HPM_P2
2024/04/14 00:00:48;;;;;;;1.63;1.53;;;;;;;20.01;54.69;98012.56;5424108;26;20625;-27
2024/04/14 00:03:15;;;;;;;1.67;1.57;;;;;;;20.02;55.10;98018.53;5440465;26;20238;-26
2024/04/14 00:05:43;;;;;;;1.70;1.60;;;;;;;20.02;54.66;98014.31;5421950;26;20282;-28
2024/04/14 00:08:10;;;;;;;1.80;1.70;;;;;;;20.02;55.11;98016.88;5432720;26;20583;-28
2024/04/14 00:10:36;;;;;;;1.80;1.70;;;;;;;20.02;54.84;98014.31;5438063;26;20229;-27
2024/04/14 00:13:03;;;;;;;1.70;1.60;;;;;;;20.04;55.17;98015.25;5431992;26;20281;-26
2024/04/14 00:15:30;;;;;;;1.50;1.40;;;;;;;20.02;54.60;98015.19;5430625;26;20736;-26
2024/04/14 00:17:56;;;;;;;1.47;1.40;;;;;;;20.05;55.01;98003.38;5433275;26;20280;-27
2024/04/14 00:20:24;;;;;;;1.37;1.37;;;;;;;19.98;54.36;98003.09;5429281;26;20234;-26
2024/04/14 00:22:51;;;;;;;1.43;1.33;;;;;;;20.05;55.08;98004.25;5430355;26;20384;-26
2024/04/14 00:25:18;;;;;;;1.80;1.70;;;;;;;20.02;55.22;97999.00;5432427;26;20299;-29
2024/04/14 00:27:45;;;;;;;1.70;1.60;;;;;;;20.00;54.78;97998.06;5436432;26;20583;-27
2024/04/14 00:30:12;;;;;;;1.60;1.50;;;;;;;20.01;55.14;98006.59;5430523;26;20242;-29
2024/04/14 00:32:40;;;;;;;1.70;1.60;;;;;;;20.01;55.18;97999.78;5427899;26;20736;-29
2024/04/14 00:35:07;;;;;;;1.70;1.60;;;;;;;20.01;54.62;97996.41;5429322;26;20268;-28
2024/04/14 00:37:33;;;;;;;1.67;1.57;;;;;;;20.02;54.96;97998.13;5424072;26;20272;-26
2024/04/14 00:40:00;;;;;;;1.80;1.70;;;;;;;20.01;55.24;97992.16;5428487;26;20223;-26
2024/04/14 00:42:27;;;;;;;1.80;1.70;;;;;;;20.02;55.17;97996.47;5426090;26;20605;-26
2024/04/14 00:44:53;;;;;;;1.70;1.60;;;;;;;20.03;54.52;97990.53;5447401;26;20266;-28
2024/04/14 00:47:20;;;;;;;1.70;1.60;;;;;;;20.03;55.07;97990.53;5440010;26;20230;-29
2024/04/14 00:49:47;;;;;;;1.73;1.63;;;;;;;20.03;54.59;97993.09;5432711;26;20237;-26
2024/04/14 00:52:14;;;;;;;1.63;1.53;;;;;;;20.03;55.03;97990.53;5431650;26;20265;-27
2024/04/14 00:54:40;;;;;;;1.80;1.70;;;;;;;20.03;54.50;97985.44;5441823;26;20306;-32
2024/04/14 00:57:07;;;;;;;1.77;1.67;;;;;;;20.02;55.02;97988.81;5432278;26;20616;-26
2024/04/14 00:59:34;;;;;;;1.90;1.80;;;;;;;20.02;54.97;97989.66;5417535;26;20233;-28
2024/04/14 01:02:00;;;;;;;1.70;1.60;;;;;;;20.00;55.07;97977.66;5443061;26;20237;-28
2024/04/14 01:04:31;;;;;;;1.70;1.60;;;;;;;19.98;55.40;97980.16;5426714;26;20234;-26
2024/04/14 01:06:58;;;;;;;1.77;1.67;;;;;;;19.98;54.97;97971.59;5420274;26;20235;-32
2024/04/14 01:09:25;;;;;;;1.80;1.70;;;;;;;20.00;54.89;97985.31;5432275;26;20315;-27
2024/04/14 01:11:52;;;;;;;1.80;1.70;;;;;;;20.01;54.66;97978.53;5428032;26;20238;-26
2024/04/14 01:14:18;;;;;;;1.60;1.50;;;;;;;20.02;55.12;97980.28;5432195;26;20761;-34
2024/04/14 01:16:45;;;;;;;1.70;1.60;;;;;;;20.02;54.96;97977.72;5419713;26;20253;-29
2024/04/14 01:19:12;;;;;;;1.80;1.70;;;;;;;20.02;54.71;97976.06;5429906;26;20654;-34
2024/04/14 01:21:38;;;;;;;1.80;1.70;;;;;;;20.03;54.92;97980.34;5437659;26;20294;-28
2024/04/14 01:24:05;;;;;;;2.00;1.90;;;;;;;20.02;55.22;97976.91;5424199;26;20238;-30
2024/04/14 01:26:32;;;;;;;1.67;1.57;;;;;;;19.98;55.04;97975.84;5428429;26;20580;-26
2024/04/14 01:28:58;;;;;;;1.60;1.50;;;;;;;20.04;54.80;97981.22;5432400;26;20282;-26
2024/04/14 01:31:25;;;;;;;1.70;1.60;;;;;;;20.06;54.67;97984.69;5419938;26;20557;-29
2024/04/14 01:33:52;;;;;;;1.93;1.83;;;;;;;20.04;55.07;97983.78;5431023;26;20623;-27
2024/04/14 01:36:18;;;;;;;1.90;1.80;;;;;;;20.02;54.52;97981.16;5425078;26;20230;-26
2024/04/14 01:38:45;;;;;;;2.00;1.80;;;;;;;20.00;55.16;97980.22;5429266;26;20271;-29
2024/04/14 01:41:12;;;;;;;1.70;1.60;;;;;;;19.99;54.90;97970.81;5433620;26;20261;-31
2024/04/14 01:43:38;;;;;;;1.90;1.80;;;;;;;19.99;54.61;97965.72;5427840;26;20289;-26
2024/04/14 01:46:05;;;;;;;1.60;1.50;;;;;;;20.00;54.60;97975.09;5434058;26;21536;-27
2024/04/14 01:48:32;;;;;;;1.77;1.67;;;;;;;19.99;54.65;97964.03;5442840;26;20276;-27
2024/04/14 01:50:58;;;;;;;1.70;1.60;;;;;;;20.01;54.68;97969.19;5432720;26;20230;-27
2024/04/14 01:53:25;;;;;;;1.73;1.63;;;;;;;19.95;55.03;97963.81;5421966;26;20620;-26
2024/04/14 01:55:52;;;;;;;1.80;1.70;;;;;;;20.00;54.98;97962.34;5428046;26;20606;-30
2024/04/14 01:58:18;;;;;;;2.00;1.90;;;;;;;20.02;54.63;97963.28;5435610;26;20285;-29
2024/04/14 02:00:45;;;;;;;1.87;1.77;;;;;;;20.02;54.96;97970.06;5427010;26;20223;-27
2024/04/14 02:03:12;;;;;;;2.23;2.03;;;;;;;20.02;54.99;97973.50;5431575;26;20289;-27
2024/04/14 02:05:38;;;;;;;1.73;1.63;;;;;;;20.02;54.91;97973.50;5425240;26;20609;-27
2024/04/14 02:08:06;;;;;;;1.70;1.60;;;;;;;20.02;54.63;97973.50;5429905;26;20565;-27
2024/04/14 02:10:38;;;;;;;1.80;1.70;;;;;;;20.03;54.67;97975.22;5418814;26;20227;-31
2024/04/14 02:13:05;;;;;;;1.80;1.70;;;;;;;20.00;54.98;97967.44;5432091;26;20242;-29
2024/04/14 02:15:32;;;;;;;1.73;1.63;;;;;;;20.00;54.59;97975.09;5432351;26;20335;-26
2024/04/14 02:17:58;;;;;;;1.93;1.83;;;;;;;19.98;54.83;97962.28;5418719;26;20278;-32
2024/04/14 02:20:25;;;;;;;1.80;1.70;;;;;;;19.98;54.73;97967.38;5433192;26;20242;-30
2024/04/14 02:22:52;;;;;;;1.70;1.60;;;;;;;19.99;55.21;97970.81;5428665;26;20345;-27
2024/04/14 02:25:19;;;;;;;1.90;1.80;;;;;;;19.99;55.25;97974.22;5439897;26;20231;-26
2024/04/14 02:27:45;;;;;;;2.00;1.90;;;;;;;20.01;55.10;97969.19;5418906;26;20737;-33
2024/04/14 02:30:12;;;;;;;2.00;1.90;;;;;;;20.02;55.06;97970.94;5426268;26;20243;-26
2024/04/14 02:32:39;;;;;;;1.90;1.80;;;;;;;20.02;54.86;97972.63;5420869;26;20242;-26
2024/04/14 02:35:06;;;;;;;1.90;1.80;;;;;;;20.02;55.16;97971.81;5424877;26;20327;-32
2024/04/14 02:37:33;;;;;;;2.00;1.90;;;;;;;20.02;55.01;97976.91;5430092;26;20234;-26
2024/04/14 02:39:59;;;;;;;1.80;1.70;;;;;;;20.01;54.68;97971.72;5425806;26;20265;-27
2024/04/14 02:42:31;;;;;;;1.73;1.63;;;;;;;20.03;54.66;97972.69;5430196;26;20283;-27
2024/04/14 02:44:58;;;;;;;1.80;1.70;;;;;;;20.01;55.18;97969.19;5443054;26;20335;-28
2024/04/14 02:47:24;;;;;;;1.80;1.70;;;;;;;19.99;55.24;97976.78;5435671;26;20237;-28
2024/04/14 02:49:51;;;;;;;1.87;1.77;;;;;;;19.95;55.24;97963.81;5424865;26;20274;-26
2024/04/14 02:52:18;;;;;;;1.90;1.80;;;;;;;19.98;54.85;97969.94;5426328;26;20729;-26
2024/04/14 02:54:45;;;;;;;1.87;1.77;;;;;;;19.98;54.78;97969.06;5427109;26;20733;-27
2024/04/14 02:57:12;;;;;;;1.63;1.53;;;;;;;19.99;55.35;97970.81;5423093;26;20243;-26
2024/04/14 02:59:39;;;;;;;1.93;1.83;;;;;;;19.93;54.69;97962.91;5442936;26;20608;-27
2024/04/14 03:02:05;;;;;;;1.80;1.70;;;;;;;20.01;55.02;97966.63;5425048;26;20277;-27
2024/04/14 03:04:32;;;;;;;2.23;2.03;;;;;;;20.02;55.35;97967.53;5434026;26;20295;-26
2024/04/14 03:06:59;;;;;;;2.20;2.10;;;;;;;20.02;55.02;97967.53;5425407;26;20285;-31
2024/04/14 03:09:26;;;;;;;1.80;1.70;;;;;;;20.03;54.91;97970.13;5430273;26;20239;-26
2024/04/14 03:11:53;;;;;;;2.00;1.80;;;;;;;20.02;54.63;97964.16;5425840;26;20235;-26
2024/04/14 03:14:20;;;;;;;2.20;2.00;;;;;;;20.03;54.83;97970.13;5424784;26;20230;-27
2024/04/14 03:16:47;;;;;;;1.97;1.87;;;;;;;20.02;55.04;97964.97;5439390;26;20306;-26
2024/04/14 03:19:14;;;;;;;1.80;1.70;;;;;;;20.03;55.12;97965.03;5426906;26;20231;-28
2024/04/14 03:21:41;;;;;;;1.97;1.87;;;;;;;20.04;55.22;97965.91;5429827;26;20261;-27
2024/04/14 03:24:07;;;;;;;2.03;1.93;;;;;;;20.01;54.77;97966.63;5420635;26;20335;-26
2024/04/14 03:26:34;;;;;;;1.90;1.80;;;;;;;19.99;54.79;97963.16;5418097;26;20238;-27
2024/04/14 03:29:01;;;;;;;2.10;2.00;;;;;;;19.98;54.82;97962.28;5431896;26;20261;-25
2024/04/14 03:31:27;;;;;;;2.20;2.10;;;;;;;19.98;55.32;97963.94;5438445;26;20230;-26
2024/04/14 03:33:54;;;;;;;2.20;2.10;;;;;;;19.98;54.89;97958.00;5446636;26;20245;-27
2024/04/14 03:36:21;;;;;;;1.97;1.87;;;;;;;20.00;54.73;97967.44;5423150;26;20330;-26
2024/04/14 03:38:48;;;;;;;2.17;2.03;;;;;;;20.00;54.93;97962.34;5430522;26;20226;-26
2024/04/14 03:41:15;;;;;;;2.07;1.70;;;;;;;20.01;55.14;97960.69;5449555;26;20233;-28
2024/04/14 03:43:41;;;;;;;1.90;1.80;;;;;;;19.99;55.09;97963.16;5438297;26;20233;-26
2024/04/14 03:46:09;;;;;;;2.33;2.20;;;;;;;20.02;54.70;97964.16;5425596;26;20235;-26
2024/04/14 03:48:35;;;;;;;2.30;2.10;;;;;;;20.02;54.66;97963.28;5431285;26;20608;-27
2024/04/14 03:51:02;;;;;;;2.20;2.00;;;;;;;20.02;54.68;97967.53;5436553;26;20292;-26
2024/04/14 03:53:29;;;;;;;2.00;1.90;;;;;;;20.02;54.71;97963.28;5443746;26;20297;-34
2024/04/14 03:55:56;;;;;;;2.07;1.97;;;;;;;20.02;55.17;97961.59;5423876;26;20731;-26
2024/04/14 03:58:23;;;;;;;2.10;2.00;;;;;;;20.03;55.34;97965.03;5428521;26;20269;-27
2024/04/14 04:00:50;;;;;;;1.90;1.80;;;;;;;20.00;54.93;97964.91;5429919;26;20561;-28
2024/04/14 04:03:17;;;;;;;2.40;2.23;;;;;;;19.98;54.71;97958.84;5438645;26;20235;-25
2024/04/14 04:05:54;;;;;;;2.10;2.00;;;;;;;19.98;55.02;97968.22;5431989;26;20265;-34
2024/04/14 04:08:24;;;;;;;2.07;1.97;;;;;;;19.97;54.69;97954.56;5442022;26;20264;-26
2024/04/14 04:11:02;;;;;;;2.00;1.90;;;;;;;19.90;54.83;97950.88;5430850;26;20278;-26
2024/04/14 04:13:32;;;;;;;2.13;2.03;;;;;;;20.00;55.23;97967.44;5431479;26;20235;-25
2024/04/14 04:16:00;;;;;;;2.20;1.80;;;;;;;20.02;55.17;97972.63;5429918;26;20230;-29
2024/04/14 04:18:27;;;;;;;2.13;2.03;;;;;;;20.02;55.34;97967.53;5426190;26;20246;-26
2024/04/14 04:20:59;;;;;;;2.10;2.00;;;;;;;20.02;55.23;97959.88;5444204;26;20229;-26
2024/04/14 04:23:26;;;;;;;1.90;1.80;;;;;;;20.00;55.13;97957.25;5433602;26;20652;-27
2024/04/14 04:25:57;;;;;;;2.10;2.00;;;;;;;20.03;54.55;97965.03;5442861;26;20239;-26
2024/04/14 04:28:23;;;;;;;2.00;1.90;;;;;;;20.02;55.22;97963.28;5428074;26;20563;-25
2024/04/14 04:30:50;;;;;;;1.90;1.80;;;;;;;20.02;55.05;97968.41;5430066;26;20230;-26
2024/04/14 04:33:17;;;;;;;2.03;1.93;;;;;;;20.02;55.14;97967.53;5428569;26;20238;-26
2024/04/14 04:35:58;;;;;;;2.37;2.17;;;;;;;20.00;54.87;97964.91;5446585;26;20260;-26
2024/04/14 04:38:25;;;;;;;2.37;2.17;;;;;;;19.98;54.91;97967.38;5420573;26;20227;-26
2024/04/14 04:40:52;;;;;;;1.97;1.80;;;;;;;19.97;54.57;97967.31;5444414;26;20326;-29
2024/04/14 04:43:20;;;;;;;2.00;1.90;;;;;;;19.97;54.82;97962.22;5423921;26;20282;-28
2024/04/14 04:45:46;;;;;;;2.10;2.00;;;;;;;19.98;55.40;97963.94;5433748;26;20237;-26
2024/04/14 04:48:13;;;;;;;2.00;1.90;;;;;;;20.00;55.11;97972.56;5440181;26;20814;-26
2024/04/14 04:50:40;;;;;;;2.33;2.23;;;;;;;19.99;55.25;97969.13;5429044;26;20819;-27
2024/04/14 04:53:06;;;;;;;1.93;1.83;;;;;;;19.99;55.29;97969.13;5439704;26;20276;-25
2024/04/14 04:55:33;;;;;;;2.00;1.90;;;;;;;20.01;55.15;97970.88;5430280;26;20234;-25
2024/04/14 04:58:00;;;;;;;2.40;2.20;;;;;;;20.01;55.35;97971.72;5439097;26;20229;-29
2024/04/14 05:00:26;;;;;;;2.20;2.00;;;;;;;19.99;54.69;97963.16;5420415;26;20235;-26
2024/04/14 05:02:53;;;;;;;2.20;2.10;;;;;;;20.01;55.13;97979.38;5430027;26;20310;-27
2024/04/14 05:05:20;;;;;;;2.03;1.93;;;;;;;19.99;55.28;97979.31;5420567;26;20247;-26
2024/04/14 05:07:46;;;;;;;2.20;2.10;;;;;;;20.02;55.30;97971.81;5425437;26;20231;-28
2024/04/14 05:10:13;;;;;;;2.30;2.17;;;;;;;20.01;55.31;97973.44;5434647;26;20299;-27
2024/04/14 05:12:40;;;;;;;2.17;2.07;;;;;;;19.99;55.42;97970.81;5421618;26;20234;-27
2024/04/14 05:15:07;;;;;;;2.07;1.97;;;;;;;19.98;55.02;97975.84;5437242;26;20241;-27
2024/04/14 05:17:33;;;;;;;2.40;2.20;;;;;;;19.96;54.79;97973.25;5441496;26;20230;-27
2024/04/14 05:20:00;;;;;;;2.40;2.10;;;;;;;19.98;54.71;97971.59;5439886;26;20736;-27
2024/04/14 05:22:27;;;;;;;2.17;2.07;;;;;;;19.97;55.47;97964.78;5420980;26;20238;-28
2024/04/14 05:24:53;;;;;;;1.90;1.80;;;;;;;19.98;55.20;97964.84;5433301;26;20327;-28
2024/04/14 05:27:23;;;;;;;2.47;2.27;;;;;;;19.98;54.79;97975.03;5426901;26;20237;-28
2024/04/14 05:29:50;;;;;;;2.07;1.97;;;;;;;20.01;54.71;97970.88;5442719;26;20329;-27
2024/04/14 05:32:16;;;;;;;2.30;2.20;;;;;;;19.99;55.30;97969.13;5429122;26;20264;-26
2024/04/14 05:34:43;;;;;;;2.00;1.90;;;;;;;19.99;55.41;97971.66;5429666;26;20286;-34
2024/04/14 05:37:10;;;;;;;2.43;2.23;;;;;;;19.99;54.82;97971.66;5439085;26;20237;-27
2024/04/14 05:39:37;;;;;;;2.20;2.10;;;;;;;20.00;54.84;97977.66;5428421;26;20323;-26
2024/04/14 05:42:04;;;;;;;2.40;2.20;;;;;;;20.00;55.03;97972.56;5435464;26;20327;-31
2024/04/14 05:44:32;;;;;;;2.27;2.17;;;;;;;19.98;55.26;97964.84;5432781;26;20234;-26
2024/04/14 05:46:59;;;;;;;2.30;2.20;;;;;;;19.99;54.67;97978.47;5432172;26;20234;-25
2024/04/14 05:49:26;;;;;;;2.33;2.13;;;;;;;19.95;54.94;97969.81;5425530;26;20269;-28
2024/04/14 05:51:53;;;;;;;2.40;2.20;;;;;;;19.98;55.47;97974.16;5430116;26;20289;-27
2024/04/14 05:54:19;;;;;;;2.10;2.00;;;;;;;19.98;55.27;97984.38;5427464;26;20246;-26
2024/04/14 05:56:46;;;;;;;2.17;2.03;;;;;;;19.98;54.82;97980.97;5428296;26;20227;-28
2024/04/14 05:59:13;;;;;;;2.50;2.30;;;;;;;19.98;54.63;97977.59;5433249;26;20234;-27
2024/04/14 06:01:39;;;;;;;2.20;2.10;;;;;;;19.99;55.21;97986.13;5455893;26;20270;-27
2024/04/14 06:04:06;;;;;;;2.27;2.10;;;;;;;19.99;55.33;97984.44;5433827;26;20282;-34
2024/04/14 06:06:34;;;;;;;2.07;1.97;;;;;;;19.99;55.15;97986.97;5425323;26;20234;-26
2024/04/14 06:09:00;;;;;;;2.20;2.10;;;;;;;20.00;54.86;97992.97;5430404;26;20339;-27
2024/04/14 06:11:27;;;;;;;2.20;2.10;;;;;;;20.02;54.62;97987.94;5419312;26;20319;-27
2024/04/14 06:13:54;;;;;;;1.90;1.80;;;;;;;20.01;54.68;97987.03;5429274;26;20235;-26
2024/04/14 06:16:20;;;;;;;2.40;2.20;;;;;;;20.01;55.11;97989.59;5437137;26;20233;-26
2024/04/14 06:18:48;;;;;;;2.70;2.50;;;;;;;20.02;54.95;97988.81;5427554;26;20639;-27
2024/04/14 06:21:15;;;;;;;2.30;2.10;;;;;;;19.95;54.71;97981.69;5434206;26;20697;-25
2024/04/14 06:23:41;;;;;;;2.10;2.00;;;;;;;20.00;54.66;97992.97;5429347;26;20585;-27
2024/04/14 06:26:08;;;;;;;2.30;2.20;;;;;;;19.99;55.13;98002.28;5423602;26;20226;-26
2024/04/14 06:28:35;;;;;;;2.10;2.00;;;;;;;19.99;55.33;98009.09;5431612;26;20227;-26
2024/04/14 06:31:01;;;;;;;2.23;2.13;;;;;;;19.98;55.24;98001.38;5442793;26;20672;-34
2024/04/14 06:33:28;;;;;;;2.27;2.17;;;;;;;19.98;54.73;97999.66;5430121;26;20238;-26
2024/04/14 06:35:55;;;;;;;2.27;2.13;;;;;;;19.99;54.59;97996.34;5431486;26;20231;-26
2024/04/14 06:38:21;;;;;;;2.10;2.00;;;;;;;19.99;55.40;97992.09;5425799;26;20227;-26
2024/04/14 06:40:48;;;;;;;2.20;2.10;;;;;;;20.02;55.29;97987.94;5432182;26;20339;-27
2024/04/14 06:43:16;;;;;;;1.93;1.83;;;;;;;20.02;54.75;97980.28;5433790;26;20234;-30
2024/04/14 06:45:45;;;;;;;2.07;1.97;;;;;;;19.98;54.74;97971.59;5428512;26;20331;-26
2024/04/14 06:48:12;;;;;;;2.10;2.00;;;;;;;20.01;54.67;97981.09;5419279;26;20339;-25
2024/04/14 06:50:38;;;;;;;2.50;2.30;;;;;;;20.01;55.15;97979.38;5429996;26;20231;-27
2024/04/14 06:53:05;;;;;;;2.10;2.00;;;;;;;20.01;54.69;97981.09;5439291;26;20575;-26
2024/04/14 06:55:32;;;;;;;2.10;2.00;;;;;;;20.02;54.94;97978.59;5441768;26;20234;-26
2024/04/14 06:58:01;;;;;;;2.20;2.10;;;;;;;20.02;55.12;97982.00;5439823;26;20245;-27
2024/04/14 07:00:28;;;;;;;2.30;2.20;;;;;;;19.99;54.87;97978.47;5426672;26;20234;-26
2024/04/14 07:02:55;;;;;;;2.27;2.07;;;;;;;19.92;54.83;97972.22;5437562;26;20572;-27
2024/04/14 07:05:21;;;;;;;2.03;1.93;;;;;;;19.98;55.24;97985.25;5424107;26;20312;-26
2024/04/14 07:07:48;;;;;;;2.47;2.27;;;;;;;19.96;55.45;97986.84;5435494;26;20229;-26
2024/04/14 07:10:15;;;;;;;2.30;2.10;;;;;;;19.98;54.69;97985.25;5453988;26;20268;-27
2024/04/14 07:12:41;;;;;;;2.03;1.93;;;;;;;19.96;54.85;97984.28;5419791;26;20693;-27
2024/04/14 07:15:08;;;;;;;2.10;2.00;;;;;;;19.99;55.15;97986.97;5427367;26;20606;-26
2024/04/14 07:17:35;;;;;;;2.27;2.07;;;;;;;20.01;54.86;97983.66;5423394;26;20234;-26
2024/04/14 07:20:04;;;;;;;2.23;2.03;;;;;;;20.01;55.06;98002.34;5428530;26;20330;-26
2024/04/14 07:22:31;;;;;;;2.20;2.10;;;;;;;20.01;55.11;97991.28;5432908;26;20280;-28
2024/04/14 07:24:58;;;;;;;2.00;1.90;;;;;;;20.01;55.03;97994.69;5418939;26;20235;-26
2024/04/14 07:27:26;;;;;;;2.20;2.10;;;;;;;19.99;55.24;97989.53;5421809;26;20294;-24
2024/04/14 07:29:52;;;;;;;2.20;2.10;;;;;;;20.02;54.73;97998.13;5418537;26;20235;-27
2024/04/14 07:32:19;;;;;;;2.23;2.13;;;;;;;20.02;55.19;97992.22;5431309;26;20230;-26
2024/04/14 07:34:46;;;;;;;2.10;2.00;;;;;;;20.01;54.79;97999.78;5431582;26;20728;-26
2024/04/14 07:37:12;;;;;;;2.07;1.97;;;;;;;19.99;55.43;97993.78;5438596;26;20731;-26
2024/04/14 07:39:39;;;;;;;2.10;2.00;;;;;;;19.91;55.13;97978.16;5435902;26;20229;-26
2024/04/14 07:42:08;;;;;;;2.20;2.10;;;;;;;19.98;55.01;97993.72;5444731;26;20264;-26
2024/04/14 07:44:35;;;;;;;2.27;2.10;;;;;;;19.96;54.57;97997.06;5434550;26;20656;-27
2024/04/14 07:47:01;;;;;;;2.10;2.00;;;;;;;19.98;54.69;97986.91;5441422;26;20229;-27
2024/04/14 07:49:28;;;;;;;2.20;2.10;;;;;;;19.98;55.31;97992.00;5431747;26;20229;-26
2024/04/14 07:51:54;;;;;;;2.40;2.20;;;;;;;20.00;54.59;97992.97;5429389;26;20239;-25
2024/04/14 07:54:21;;;;;;;2.43;2.27;;;;;;;19.99;55.31;97989.53;5420565;26;20242;-28
2024/04/14 07:56:48;;;;;;;2.23;2.10;;;;;;;20.01;54.89;97988.75;5436953;26;20233;-26
2024/04/14 07:59:14;;;;;;;2.23;2.10;;;;;;;20.01;54.58;97981.09;5430489;26;21227;-24
2024/04/14 08:01:41;;;;;;;2.13;2.03;;;;;;;19.99;54.87;97981.88;5433763;26;20225;-31
2024/04/14 08:04:08;;;;;;;2.10;2.00;;;;;;;20.01;55.18;97987.03;5419926;26;20234;-27
2024/04/14 08:06:35;;;;;;;2.00;1.90;;;;;;;19.98;54.83;97979.25;5444613;26;20277;-26
2024/04/14 08:09:02;;;;;;;1.80;1.70;;;;;;;20.01;54.96;97986.19;5431704;26;20322;-34
2024/04/14 08:11:28;;;;;;;1.93;1.83;;;;;;;19.98;54.73;97984.38;5429611;26;20260;-28
2024/04/14 08:13:55;;;;;;;2.30;2.10;;;;;;;19.97;55.35;97980.09;5430411;26;20265;-26
2024/04/14 08:16:22;;;;;;;2.10;2.00;;;;;;;19.98;54.74;97983.50;5416693;26;20290;-28
2024/04/14 08:18:49;;;;;;;2.07;1.97;;;;;;;19.98;54.62;97986.06;5432244;26;20253;-27
2024/04/14 08:21:15;;;;;;;2.10;2.00;;;;;;;19.98;55.12;97973.31;5430953;26;20735;-27
2024/04/14 08:23:42;;;;;;;2.23;2.10;;;;;;;19.98;55.32;97972.50;5421634;26;20234;-28
2024/04/14 08:26:09;;;;;;;2.30;2.10;;;;;;;19.99;54.58;97974.22;5424461;26;20277;-27
2024/04/14 08:28:35;;;;;;;2.17;2.07;;;;;;;19.99;55.20;97975.91;5419482;26;20273;-27
2024/04/14 08:31:02;;;;;;;2.20;2.00;;;;;;;19.98;55.19;97971.59;5438180;26;20230;-27
2024/04/14 08:33:29;;;;;;;2.10;2.00;;;;;;;20.01;55.15;97965.78;5433792;26;20269;-28
2024/04/14 08:35:55;;;;;;;2.30;2.20;;;;;;;19.99;54.91;97974.22;5434530;26;20238;-26
2024/04/14 08:38:22;;;;;;;1.93;1.83;;;;;;;19.99;55.40;97971.66;5425924;26;20568;-27
2024/04/14 08:40:55;;;;;;;2.20;2.10;;;;;;;20.00;55.28;97972.56;5421047;26;20235;-34
2024/04/14 08:43:22;;;;;;;1.87;1.77;;;;;;;20.01;54.75;97970.88;5424517;26;20277;-28
2024/04/14 08:45:50;;;;;;;2.00;1.90;;;;;;;20.00;55.33;97972.56;5438229;26;20595;-26
2024/04/14 08:48:20;;;;;;;2.40;2.20;;;;;;;19.98;55.41;97968.22;5432458;26;20340;-26
2024/04/14 08:50:46;;;;;;;2.27;2.17;;;;;;;19.98;54.69;97968.22;5417017;26;20246;-26
2024/04/14 08:53:17;;;;;;;2.43;2.23;;;;;;;19.96;54.71;97966.44;5421333;26;20238;-26
2024/04/14 08:55:45;;;;;;;2.30;2.13;;;;;;;19.98;55.39;97965.66;5434609;26;20246;-25
2024/04/14 08:58:14;;;;;;;2.43;2.23;;;;;;;19.98;54.78;97958.84;5428676;26;20269;-28
2024/04/14 09:00:42;;;;;;;2.20;2.10;;;;;;;20.00;54.63;97962.34;5417173;26;20269;-25
2024/04/14 09:03:09;;;;;;;2.07;1.97;;;;;;;20.00;55.19;97962.34;5430382;26;20239;-26
2024/04/14 09:05:36;;;;;;;2.00;1.90;;;;;;;20.01;55.15;97968.34;5434524;26;20227;-28
2024/04/14 09:08:03;;;;;;;2.20;2.10;;;;;;;19.99;54.77;97964.03;5421285;26;20234;-30
2024/04/14 09:10:29;;;;;;;2.10;2.00;;;;;;;20.02;54.93;97965.84;5440332;26;20233;-29
2024/04/14 09:12:56;;;;;;;2.10;2.00;;;;;;;20.00;54.81;97967.44;5430066;26;20243;-26
2024/04/14 09:15:23;;;;;;;2.30;2.10;;;;;;;20.01;55.20;97970.88;5424198;26;20238;-26
2024/04/14 09:17:49;;;;;;;2.17;2.07;;;;;;;20.02;54.95;97967.53;5437173;26;20247;-26
2024/04/14 09:20:17;;;;;;;2.10;2.00;;;;;;;20.01;55.10;97965.78;5431804;26;20227;-25
2024/04/14 09:22:44;;;;;;;1.77;1.67;;;;;;;19.96;54.81;97958.78;5426650;26;20359;-27
2024/04/14 09:25:14;;;;;;;2.10;2.00;;;;;;;19.98;55.25;97965.66;5430262;26;20229;-28
2024/04/14 09:27:44;;;;;;;1.90;1.80;;;;;;;19.91;54.89;97952.63;5434629;26;20598;-26
2024/04/14 09:30:18;;;;;;;2.00;1.90;;;;;;;19.97;54.56;97967.31;5423730;26;20269;-27
2024/04/14 09:32:45;;;;;;;2.23;1.90;;;;;;;19.98;54.69;97967.38;5432826;26;20245;-26
2024/04/14 09:35:12;;;;;;;1.90;1.80;;;;;;;19.99;54.59;97963.16;5420431;26;20615;-27
2024/04/14 09:37:39;;;;;;;2.17;2.07;;;;;;;19.99;54.69;97961.47;5438272;26;20229;-26
2024/04/14 09:40:09;;;;;;;1.97;1.87;;;;;;;20.01;54.77;97966.63;5428250;26;20230;-27
2024/04/14 09:42:35;;;;;;;1.90;1.80;;;;;;;20.01;55.30;97969.19;5426738;26;20306;-28
2024/04/14 09:45:03;;;;;;;1.90;1.80;;;;;;;20.02;55.32;97963.28;5427193;26;20229;-26
2024/04/14 09:47:30;;;;;;;2.50;2.30;;;;;;;20.02;54.47;97959.88;5434726;26;20340;-27
2024/04/14 09:49:57;;;;;;;1.80;1.70;;;;;;;20.00;54.80;97959.78;5431709;26;20239;-26
2024/04/14 09:52:23;;;;;;;1.93;1.83;;;;;;;20.02;54.61;97958.19;5415068;26;20624;-26
2024/04/14 09:54:52;;;;;;;2.00;1.90;;;;;;;20.01;54.58;97951.31;5425227;26;20266;-28
2024/04/14 09:57:21;;;;;;;2.10;2.00;;;;;;;19.99;55.04;97956.38;5410480;26;20230;-26
2024/04/14 09:59:47;;;;;;;2.10;2.00;;;;;;;19.98;55.10;97953.75;5446332;26;20237;-26
2024/04/14 10:02:17;;;;;;;1.90;1.80;;;;;;;19.98;55.15;97944.44;5434544;26;20231;-28
2024/04/14 10:04:48;;;;;;;2.33;1.93;;;;;;;19.98;55.35;97951.19;5426087;26;20234;-25
2024/04/14 10:07:15;;;;;;;2.00;1.90;;;;;;;19.95;55.06;97936.66;5432202;26;20273;-27
2024/04/14 10:09:48;;;;;;;2.00;1.90;;;;;;;19.99;54.53;97937.66;5421881;26;20241;-25
2024/04/14 10:12:19;;;;;;;2.03;1.93;;;;;;;20.00;54.59;97939.38;5451218;26;20256;-26
2024/04/14 10:14:46;;;;;;;3.70;1.83;;;;;;;20.01;55.28;97947.94;5435471;26;20280;-26
2024/04/14 10:17:13;;;;;;;2.00;1.90;;;;;;;19.98;55.05;97936.78;5433961;26;20261;-28
2024/04/14 10:19:40;;;;;;;2.10;2.00;;;;;;;20.01;54.83;97942.81;5433265;26;20269;-26
2024/04/14 10:22:10;;;;;;;2.00;1.90;;;;;;;20.02;54.31;97942.00;5432314;26;20269;-27
2024/04/14 10:24:49;;;;;;;1.87;1.77;;;;;;;20.01;54.98;97938.56;5424232;26;20223;-35
2024/04/14 10:27:16;;;;;;;2.00;1.90;;;;;;;20.02;54.50;97935.22;5427794;26;20231;-29
2024/04/14 10:29:44;;;;;;;1.80;1.70;;;;;;;20.02;55.20;97927.59;5425235;26;20269;-26
2024/04/14 10:32:12;;;;;;;1.90;1.80;;;;;;;20.02;54.80;97927.59;5423454;26;20268;-25
2024/04/14 10:34:39;;;;;;;1.90;1.80;;;;;;;19.99;55.21;97925.75;5416781;26;20609;-26
2024/04/14 10:37:06;;;;;;;2.10;2.00;;;;;;;19.99;54.61;97922.34;5430674;26;20231;-27
2024/04/14 10:39:33;;;;;;;2.10;2.00;;;;;;;19.96;55.17;97919.66;5428102;26;20250;-27
2024/04/14 10:42:00;;;;;;;1.90;1.80;;;;;;;19.99;54.60;97924.91;5394931;26;20298;-25
2024/04/14 10:44:26;;;;;;;1.90;1.80;;;;;;;19.99;54.80;97919.81;5439872;26;20230;-26
2024/04/14 10:46:53;;;;;;;1.90;1.80;;;;;;;20.01;54.77;97919.84;5440668;26;20268;-27
2024/04/14 10:49:20;;;;;;;1.97;1.87;;;;;;;20.01;54.69;97915.59;5430971;26;20235;-25
2024/04/14 10:51:46;;;;;;;2.03;1.90;;;;;;;20.01;54.86;97910.50;5439582;26;20264;-29
2024/04/14 10:54:13;;;;;;;1.90;1.80;;;;;;;20.00;54.85;97908.78;5432280;26;20238;-26
2024/04/14 10:56:40;;;;;;;1.80;1.70;;;;;;;20.01;54.86;97905.41;5425993;26;20227;-29
2024/04/14 10:59:08;;;;;;;1.80;1.70;;;;;;;20.00;55.23;97903.69;5428111;26;20739;-26
2024/04/14 11:01:35;;;;;;;1.90;1.80;;;;;;;19.99;54.72;97892.59;5426773;26;20264;-28
2024/04/14 11:04:04;;;;;;;2.00;1.90;;;;;;;20.03;54.96;97903.81;5431187;26;20581;-29
2024/04/14 11:06:31;;;;;;;1.80;1.70;;;;;;;20.02;54.94;97897.81;5438775;26;20629;-26
2024/04/14 11:08:59;;;;;;;1.90;1.80;;;;;;;19.98;55.06;97885.75;5397061;26;20267;-28
2024/04/14 11:11:25;;;;;;;2.00;1.90;;;;;;;19.98;55.02;97886.56;5423372;26;20277;-26
2024/04/14 11:13:52;;;;;;;1.90;1.80;;;;;;;19.99;55.04;97889.19;5415107;26;20250;-27
2024/04/14 11:16:19;;;;;;;1.70;1.60;;;;;;;19.99;55.22;97891.75;5417244;26;20230;-25
2024/04/14 11:18:47;;;;;;;1.90;1.80;;;;;;;19.99;54.67;97878.97;5438280;26;20230;-32
2024/04/14 11:21:18;;;;;;;1.77;1.67;;;;;;;19.97;54.76;97880.59;5434161;26;20698;-27
2024/04/14 11:23:48;;;;;;;2.20;2.10;;;;;;;19.99;54.95;97873.88;5427133;26;20238;-24
2024/04/14 11:26:15;;;;;;;1.90;1.80;;;;;;;20.01;54.68;97877.34;5429298;26;20223;-26
2024/04/14 11:28:41;;;;;;;1.57;1.47;;;;;;;20.02;54.54;97871.44;5432958;26;20306;-26
2024/04/14 11:31:08;;;;;;;1.93;1.83;;;;;;;20.03;55.24;97862.97;5432456;26;20226;-29
2024/04/14 11:33:37;;;;;;;1.90;1.80;;;;;;;20.02;55.18;97857.00;5431197;26;20238;-27